Time;durP1;ratioP1;P1;durP2;ratioP2;P2;SDS_P1;SDS_P2;PMS_P1;PMS_P2;Temp;Humidity;BMP_temperature;BMP_pressure;BME280_temperature;BME280_humidity;BME280_pressure;Samples;Min_cycle;Max_cycle;Signal;HPM_P1;HPM_P2
2023/12/31 00:01:28;;;;;;;29.15;17.25;;;;;;;-142.91;100.00;56616.03;5045774;28;20302;-71
2023/12/31 00:03:56;;;;;;;36.17;18.65;;;;;;;-142.91;100.00;56616.03;5041736;28;20336;-69
2023/12/31 00:06:23;;;;;;;35.50;18.42;;;;;;;-142.91;100.00;56616.03;5039689;28;20533;-69
2023/12/31 00:08:49;;;;;;;36.47;19.80;;;;;;;-142.91;100.00;56616.03;5039412;28;20290;-69
2023/12/31 00:11:16;;;;;;;35.53;19.83;;;;;;;-142.91;100.00;56616.03;5037681;28;20286;-69
2023/12/31 00:13:42;;;;;;;35.83;20.67;;;;;;;-142.91;100.00;56616.03;5039114;28;20224;-71
2023/12/31 00:16:12;;;;;;;37.42;22.00;;;;;;;-142.91;100.00;56616.03;5040085;28;20723;-69
2023/12/31 00:18:38;;;;;;;35.75;20.73;;;;;;;-142.91;100.00;56616.03;5040497;28;20306;-69
2023/12/31 00:21:06;;;;;;;44.85;22.40;;;;;;;-142.91;100.00;56616.03;5040054;28;20325;-67
2023/12/31 00:23:33;;;;;;;42.42;23.48;;;;;;;23.25;100.00;56616.03;5039625;28;20681;-68
2023/12/31 00:26:00;;;;;;;44.40;24.55;;;;;;;-142.91;100.00;56616.03;5040138;28;20550;-71
2023/12/31 00:28:26;;;;;;;42.63;24.13;;;;;;;-142.91;100.00;56616.03;5042921;28;20213;-70
2023/12/31 00:30:53;;;;;;;34.45;19.77;;;;;;;-142.91;100.00;56616.03;5042291;28;20290;-71
2023/12/31 00:33:20;;;;;;;40.03;19.10;;;;;;;-142.91;100.00;56616.03;5039937;28;20290;-68
2023/12/31 00:35:47;;;;;;;28.98;17.88;;;;;;;-142.91;100.00;56616.03;5043080;28;20290;-71
2023/12/31 00:38:15;;;;;;;34.90;19.65;;;;;;;-142.91;100.00;56616.03;5040593;28;21440;-69
2023/12/31 00:40:42;;;;;;;37.55;19.10;;;;;;;-142.91;100.00;56616.03;5039718;28;20227;-72
2023/12/31 00:43:08;;;;;;;35.95;19.88;;;;;;;-142.91;100.00;56616.03;5043945;28;20310;-69
2023/12/31 00:45:35;;;;;;;37.58;20.25;;;;;;;-142.91;100.00;56616.03;5033690;28;20295;-72
2023/12/31 00:48:02;;;;;;;39.58;19.98;;;;;;;-142.91;100.00;56616.03;5039257;28;20756;-72
2023/12/31 00:50:28;;;;;;;37.63;19.20;;;;;;;-142.91;100.00;56616.03;5042698;28;20286;-73
2023/12/31 00:52:55;;;;;;;32.88;18.95;;;;;;;-142.91;100.00;56616.03;5042922;28;20273;-73
2023/12/31 00:55:23;;;;;;;33.58;19.60;;;;;;;-142.91;100.00;56616.03;5040921;28;20664;-68
2023/12/31 00:57:49;;;;;;;39.63;19.77;;;;;;;-142.91;100.00;56616.03;5037346;28;20317;-69
2023/12/31 01:00:16;;;;;;;35.70;18.42;;;;;;;-142.91;100.00;56616.03;5039085;28;20290;-72
2023/12/31 01:02:43;;;;;;;31.70;18.58;;;;;;;-142.91;100.00;56616.03;5039775;28;20665;-73
2023/12/31 01:05:10;;;;;;;34.67;19.33;;;;;;;-142.91;100.00;56616.03;5041842;28;20311;-71
2023/12/31 01:07:36;;;;;;;37.75;18.25;;;;;;;-142.91;100.00;56616.03;5038483;28;20267;-69
2023/12/31 01:10:04;;;;;;;33.88;18.85;;;;;;;-142.91;100.00;56616.03;5038377;28;20286;-70
2023/12/31 01:12:32;;;;;;;30.00;17.92;;;;;;;-142.91;100.00;56616.03;5039664;28;20238;-72
2023/12/31 01:14:58;;;;;;;32.33;19.15;;;;;;;-142.91;100.00;56616.03;5039732;28;20295;-70
2023/12/31 01:17:25;;;;;;;28.45;18.98;;;;;;;-142.91;100.00;56616.03;5040067;28;20735;-71
2023/12/31 01:19:52;;;;;;;33.65;17.73;;;;;;;-142.91;100.00;56616.03;5041163;28;20249;-69
2023/12/31 01:22:18;;;;;;;36.28;19.20;;;;;;;-142.91;100.00;56616.03;5039163;28;20232;-68
2023/12/31 01:24:45;;;;;;;31.58;17.67;;;;;;;-142.91;100.00;56616.03;5041146;28;20203;-70
2023/12/31 01:27:11;;;;;;;34.38;18.63;;;;;;;-142.91;100.00;56616.03;5043595;28;20294;-69
2023/12/31 01:29:39;;;;;;;28.98;17.45;;;;;;;-142.91;100.00;56616.03;5040181;28;20287;-70
2023/12/31 01:32:07;;;;;;;31.15;16.08;;;;;;;-142.91;100.00;56616.03;5039578;28;20249;-69
2023/12/31 01:34:33;;;;;;;29.38;17.98;;;;;;;-142.91;100.00;56616.03;5037616;28;20715;-70
2023/12/31 01:37:00;;;;;;;32.60;18.83;;;;;;;-142.91;100.00;56616.03;5037798;28;20259;-69
2023/12/31 01:39:26;;;;;;;33.42;17.13;;;;;;;;;;5038995;28;20698;-69
2023/12/31 01:41:53;;;;;;;26.92;15.98;;;;;;;;;;5041013;28;20230;-71
2023/12/31 01:44:19;;;;;;;36.17;18.13;;;;;;;-142.91;100.00;56616.03;5040886;28;20200;-70
2023/12/31 01:46:47;;;;;;;37.28;18.13;;;;;;;-142.91;100.00;56616.03;5040643;28;20382;-70
2023/12/31 01:49:14;;;;;;;30.30;17.35;;;;;;;;;;5042373;28;20282;-70
2023/12/31 01:51:41;;;;;;;30.73;17.90;;;;;;;;;;5039187;28;20756;-72
2023/12/31 01:54:08;;;;;;;29.60;17.42;;;;;;;-142.91;100.00;56616.03;5039355;28;20277;-68
2023/12/31 01:56:36;;;;;;;30.63;18.33;;;;;;;;;;5039694;28;20227;-67
2023/12/31 01:59:05;;;;;;;29.58;18.45;;;;;;;-142.91;100.00;56616.03;5038439;28;20326;-69
2023/12/31 02:01:31;;;;;;;27.95;18.42;;;;;;;;;;5038601;28;20204;-68
2023/12/31 02:03:59;;;;;;;35.60;18.75;;;;;;;-142.91;100.00;56616.03;5040017;28;20222;-67
2023/12/31 02:06:26;;;;;;;31.30;18.73;;;;;;;-142.91;100.00;56616.03;5035918;28;20243;-71
2023/12/31 02:08:51;;;;;;;36.13;18.98;;;;;;;;;;5034478;28;20291;-69
2023/12/31 02:11:18;;;;;;;33.00;18.05;;;;;;;-142.91;100.00;56616.03;5039149;28;20199;-70
2023/12/31 02:13:45;;;;;;;29.42;18.27;;;;;;;-142.91;100.00;56616.03;5031438;28;22029;-68
2023/12/31 02:16:15;;;;;;;39.28;20.05;;;;;;;-142.91;100.00;56616.03;5033523;28;20675;-70
2023/12/31 02:18:42;;;;;;;31.52;19.02;;;;;;;-142.91;100.00;56616.03;5036861;28;20222;-69
2023/12/31 02:21:13;;;;;;;34.67;20.10;;;;;;;-142.91;100.00;56616.03;5036180;28;20329;-69
2023/12/31 02:23:39;;;;;;;36.17;20.65;;;;;;;-142.91;100.00;56616.03;5034923;28;21722;-68
2023/12/31 02:26:10;;;;;;;36.72;19.83;;;;;;;-142.91;100.00;56616.03;5036138;28;20195;-68
2023/12/31 02:28:37;;;;;;;38.28;20.70;;;;;;;-142.91;100.00;56616.03;5037730;28;20282;-69
2023/12/31 02:31:04;;;;;;;40.88;21.75;;;;;;;-142.91;100.00;56616.03;5036029;28;20290;-68
2023/12/31 02:33:31;;;;;;;32.22;20.75;;;;;;;-142.91;100.00;56616.03;5037798;28;20242;-69
2023/12/31 02:35:57;;;;;;;39.53;22.08;;;;;;;-142.91;100.00;56616.03;5038713;28;20286;-68
2023/12/31 02:38:24;;;;;;;33.83;19.25;;;;;;;-142.91;100.00;56616.03;5037931;28;20310;-68
2023/12/31 02:40:50;;;;;;;36.47;20.50;;;;;;;-142.91;100.00;56616.03;5038841;28;20297;-70
2023/12/31 02:43:19;;;;;;;33.92;20.95;;;;;;;-142.91;100.00;56616.03;5040691;28;20207;-69
2023/12/31 02:45:45;;;;;;;36.78;20.27;;;;;;;-142.91;100.00;56616.03;5038958;28;20322;-69
2023/12/31 02:48:11;;;;;;;39.13;21.48;;;;;;;-142.91;100.00;56616.03;5039802;28;20651;-69
2023/12/31 02:50:38;;;;;;;38.97;20.02;;;;;;;-142.91;100.00;56616.03;5038223;28;20235;-68
2023/12/31 02:53:05;;;;;;;37.45;20.35;;;;;;;-142.91;100.00;56616.03;5039052;28;20322;-71
2023/12/31 02:55:31;;;;;;;37.45;22.08;;;;;;;-142.91;100.00;56616.03;5036934;28;20698;-68
2023/12/31 02:57:57;;;;;;;38.28;21.48;;;;;;;;;;5039810;28;20305;-70
2023/12/31 03:00:25;;;;;;;41.50;22.23;;;;;;;-142.91;100.00;56616.03;5037766;28;20735;-70
2023/12/31 03:02:52;;;;;;;36.45;20.38;;;;;;;;;;5038375;28;20294;-69
2023/12/31 03:05:19;;;;;;;39.47;22.05;;;;;;;-142.91;100.00;56616.03;5037997;28;20231;-67
2023/12/31 03:07:45;;;;;;;37.03;21.08;;;;;;;-142.91;100.00;56616.03;5037450;28;20223;-70
2023/12/31 03:10:12;;;;;;;40.58;22.70;;;;;;;-142.91;100.00;56616.03;5036325;28;20329;-68
2023/12/31 03:12:38;;;;;;;40.25;23.05;;;;;;;-142.91;100.00;56616.03;5041155;28;20277;-69
2023/12/31 03:15:06;;;;;;;40.28;22.40;;;;;;;-142.91;100.00;56616.03;5039078;28;20310;-68
2023/12/31 03:17:34;;;;;;;40.70;21.90;;;;;;;-142.91;100.00;56616.03;5039147;28;20330;-69
2023/12/31 03:20:01;;;;;;;42.70;23.90;;;;;;;-142.91;100.00;56616.03;5038113;28;20289;-70
2023/12/31 03:22:27;;;;;;;43.35;24.30;;;;;;;-142.91;100.00;56616.03;5036277;28;20518;-69
2023/12/31 03:24:54;;;;;;;43.28;24.33;;;;;;;-142.91;100.00;56616.03;5038238;28;20240;-70
2023/12/31 03:27:20;;;;;;;41.72;22.80;;;;;;;-142.91;100.00;56616.03;5037727;28;20286;-68
2023/12/31 03:29:47;;;;;;;39.67;22.30;;;;;;;-142.91;100.00;56616.03;5039792;28;20278;-70
2023/12/31 03:32:14;;;;;;;43.33;23.20;;;;;;;-142.91;100.00;56616.03;5039629;28;20234;-71
2023/12/31 03:34:42;;;;;;;43.83;24.25;;;;;;;-142.91;100.00;56616.03;5036964;28;20838;-69
2023/12/31 03:37:09;;;;;;;44.22;25.02;;;;;;;-142.91;100.00;56616.03;5038221;28;20487;-68
2023/12/31 03:39:35;;;;;;;49.25;24.35;;;;;;;-142.91;100.00;56616.03;5041530;28;20219;-68
2023/12/31 03:42:02;;;;;;;50.47;24.80;;;;;;;-142.91;100.00;56616.03;5039526;28;20289;-70
2023/12/31 03:44:29;;;;;;;44.05;24.02;;;;;;;-142.91;100.00;56616.03;5042378;28;20199;-68
2023/12/31 03:46:56;;;;;;;39.88;23.55;;;;;;;-142.91;100.00;56616.03;5038381;28;20290;-68
2023/12/31 03:49:22;;;;;;;47.42;24.90;;;;;;;-142.91;100.00;56616.03;5039340;28;20202;-69
2023/12/31 03:51:50;;;;;;;45.10;24.35;;;;;;;-142.91;100.00;56616.03;5044325;28;20281;-69
2023/12/31 03:54:17;;;;;;;45.45;24.42;;;;;;;-142.91;100.00;56616.03;5041241;28;20291;-70
2023/12/31 03:56:44;;;;;;;41.50;23.17;;;;;;;-142.91;100.00;56616.03;5040508;28;20294;-70
2023/12/31 03:59:10;;;;;;;39.22;23.45;;;;;;;-142.91;100.00;56616.03;5039176;28;20319;-68
2023/12/31 04:01:44;;;;;;;49.50;25.38;;;;;;;-142.91;100.00;56616.03;5034650;28;20330;-69
2023/12/31 04:04:10;;;;;;;44.30;25.75;;;;;;;-142.91;100.00;56616.03;5043558;28;20209;-72
2023/12/31 04:06:37;;;;;;;45.83;25.52;;;;;;;-142.91;100.00;56616.03;5043997;28;20282;-70
2023/12/31 04:09:05;;;;;;;47.28;25.27;;;;;;;-142.91;100.00;56616.03;5039064;28;20293;-69
2023/12/31 04:11:31;;;;;;;47.13;24.58;;;;;;;-142.91;100.00;56616.03;5038177;28;20307;-70
2023/12/31 04:13:58;;;;;;;46.00;27.02;;;;;;;-142.91;100.00;56616.03;5041407;28;20300;-69
2023/12/31 04:16:25;;;;;;;45.17;24.67;;;;;;;-142.91;100.00;56616.03;5040961;28;20238;-70
2023/12/31 04:18:51;;;;;;;45.30;24.98;;;;;;;-142.91;100.00;56616.03;5038691;28;20318;-69
2023/12/31 04:21:18;;;;;;;52.40;26.20;;;;;;;-142.91;100.00;56616.03;5037527;28;20321;-69
2023/12/31 04:23:44;;;;;;;44.20;24.63;;;;;;;;;;5037721;28;20291;-71
2023/12/31 04:26:12;;;;;;;45.38;25.38;;;;;;;-142.91;100.00;56616.03;5039501;28;20772;-70
2023/12/31 04:28:38;;;;;;;44.75;25.52;;;;;;;;;;5040276;28;20290;-69
2023/12/31 04:31:05;;;;;;;49.42;24.50;;;;;;;;;;5040066;28;20287;-71
2023/12/31 04:33:31;;;;;;;42.42;24.73;;;;;;;;;;5041005;28;20203;-70
2023/12/31 04:35:58;;;;;;;45.33;24.67;;;;;;;;;;5042327;28;20713;-69
2023/12/31 04:38:24;;;;;;;55.15;31.67;;;;;;;-142.91;100.00;56616.03;5041064;28;20318;-69
2023/12/31 04:40:51;;;;;;;64.55;34.42;;;;;;;-142.91;100.00;56616.03;5038267;28;20207;-70
2023/12/31 04:43:19;;;;;;;67.38;35.42;;;;;;;-142.91;100.00;56616.03;5041558;28;20249;-71
2023/12/31 04:45:46;;;;;;;66.10;33.75;;;;;;;-142.91;100.00;56616.03;5038268;28;20701;-72
2023/12/31 04:48:12;;;;;;;66.40;33.38;;;;;;;;;;5042922;28;20260;-70
2023/12/31 04:50:39;;;;;;;63.15;34.30;;;;;;;-142.91;100.00;56616.03;5042982;28;20810;-70
2023/12/31 04:53:05;;;;;;;59.15;33.05;;;;;;;-142.91;100.00;56616.03;5040523;28;20714;-72
2023/12/31 04:55:34;;;;;;;61.78;34.45;;;;;;;-142.91;100.00;56616.03;5039608;28;20764;-72
2023/12/31 04:58:00;;;;;;;58.80;31.75;;;;;;;-142.91;100.00;56616.03;5040161;28;20333;-72
2023/12/31 05:00:28;;;;;;;65.70;31.73;;;;;;;-142.91;100.00;56616.03;5038988;28;20294;-69
2023/12/31 05:02:55;;;;;;;61.58;32.30;;;;;;;;;;5036021;28;20302;-70
2023/12/31 05:05:22;;;;;;;55.30;31.50;;;;;;;;;;5040523;28;20662;-69
2023/12/31 05:07:49;;;;;;;58.58;32.03;;;;;;;-142.91;100.00;56616.03;5042150;28;20207;-71
2023/12/31 05:10:15;;;;;;;65.32;32.85;;;;;;;;;;5041962;28;20699;-70
2023/12/31 05:12:42;;;;;;;54.55;29.80;;;;;;;-142.91;100.00;56616.03;5038444;28;20290;-68
2023/12/31 05:15:08;;;;;;;57.28;30.67;;;;;;;-142.91;100.00;56616.03;5040715;28;20239;-69
2023/12/31 05:17:36;;;;;;;48.92;29.27;;;;;;;-142.91;100.00;56616.03;5039766;28;20287;-69
2023/12/31 05:20:03;;;;;;;58.08;30.35;;;;;;;-142.91;100.00;56616.03;5040612;28;20310;-73
2023/12/31 05:22:30;;;;;;;61.15;29.42;;;;;;;-142.91;100.00;56616.03;5038917;28;20325;-72
2023/12/31 05:24:56;;;;;;;52.40;30.02;;;;;;;-142.91;100.00;56616.03;5041784;28;20231;-71
2023/12/31 05:27:23;;;;;;;72.13;36.53;;;;;;;-142.91;100.00;56616.03;5042722;28;20257;-70
2023/12/31 05:29:50;;;;;;;54.47;30.50;;;;;;;-142.91;100.00;56616.03;5037670;28;20291;-68
2023/12/31 05:32:16;;;;;;;63.10;28.92;;;;;;;-142.91;100.00;56616.03;5040134;28;20231;-71
2023/12/31 05:34:44;;;;;;;55.38;28.80;;;;;;;-142.91;100.00;56616.03;5042495;28;20677;-68
2023/12/31 05:37:11;;;;;;;60.75;29.08;;;;;;;-142.91;100.00;56616.03;5042031;28;20226;-70
2023/12/31 05:39:38;;;;;;;49.55;26.50;;;;;;;-142.91;100.00;56616.03;5039288;28;20215;-67
2023/12/31 05:42:05;;;;;;;42.03;24.80;;;;;;;-142.91;100.00;56616.03;5039708;28;20200;-70
2023/12/31 05:44:31;;;;;;;48.42;26.40;;;;;;;-142.91;100.00;56616.03;5040008;28;20614;-71
2023/12/31 05:46:58;;;;;;;42.15;24.77;;;;;;;-142.91;100.00;56616.03;5040935;28;20290;-69
2023/12/31 05:49:24;;;;;;;55.33;28.60;;;;;;;-142.91;100.00;56616.03;5038530;28;20745;-69
2023/12/31 05:51:52;;;;;;;52.05;29.45;;;;;;;23.29;100.00;56616.03;5037703;28;20212;-70
2023/12/31 05:54:19;;;;;;;45.42;24.48;;;;;;;23.25;100.00;56616.03;5042230;28;20293;-68
2023/12/31 05:56:46;;;;;;;44.08;25.83;;;;;;;23.25;100.00;56616.03;5040200;28;20306;-69
2023/12/31 05:59:12;;;;;;;43.72;25.30;;;;;;;23.25;100.00;56616.03;5039794;28;20305;-69
2023/12/31 06:01:39;;;;;;;48.40;25.85;;;;;;;23.25;100.00;56616.03;5034142;28;20290;-71
2023/12/31 06:04:06;;;;;;;51.78;26.27;;;;;;;-142.91;100.00;56616.03;5041077;28;20227;-70
2023/12/31 06:06:35;;;;;;;42.83;24.65;;;;;;;23.25;100.00;56616.03;5036787;28;20268;-71
2023/12/31 06:09:03;;;;;;;51.65;25.52;;;;;;;23.25;100.00;56616.03;5036286;28;20202;-70
2023/12/31 06:11:29;;;;;;;46.13;22.60;;;;;;;-142.91;100.00;56616.03;5034335;28;20683;-71
2023/12/31 06:13:56;;;;;;;53.10;24.88;;;;;;;-142.91;100.00;56616.03;5037850;28;20288;-70
2023/12/31 06:16:22;;;;;;;43.00;23.98;;;;;;;-142.91;100.00;56616.03;5039469;28;20291;-70
2023/12/31 06:18:49;;;;;;;46.75;23.83;;;;;;;23.25;100.00;56616.03;5037376;28;20310;-68
2023/12/31 06:21:16;;;;;;;44.45;23.70;;;;;;;-142.91;100.00;56616.03;5037619;28;20755;-70
2023/12/31 06:23:42;;;;;;;43.50;22.42;;;;;;;-142.91;100.00;56616.03;5039182;28;20294;-68
2023/12/31 06:26:10;;;;;;;47.33;24.65;;;;;;;-142.91;100.00;56616.03;5039455;28;20290;-71
2023/12/31 06:28:37;;;;;;;50.47;21.85;;;;;;;-142.91;100.00;56616.03;5042038;28;20758;-70
2023/12/31 06:31:03;;;;;;;52.90;24.25;;;;;;;;;;5039610;28;20241;-69
2023/12/31 06:33:30;;;;;;;38.03;22.42;;;;;;;23.25;100.00;56616.03;5037273;28;20291;-69
2023/12/31 06:35:56;;;;;;;41.55;22.35;;;;;;;-142.91;100.00;56616.03;5037030;28;20298;-70
2023/12/31 06:38:23;;;;;;;49.88;22.27;;;;;;;-142.91;100.00;56616.03;5041309;28;20289;-69
2023/12/31 06:40:50;;;;;;;49.58;22.60;;;;;;;-142.91;100.00;56616.03;5039691;28;20286;-70
2023/12/31 06:43:18;;;;;;;41.55;23.42;;;;;;;23.25;100.00;56616.03;5040086;28;20672;-70
2023/12/31 06:45:44;;;;;;;49.72;24.30;;;;;;;-142.91;100.00;56616.03;5036485;28;20285;-71
2023/12/31 06:48:11;;;;;;;58.08;24.67;;;;;;;23.25;100.00;56616.03;5041362;28;20234;-71
2023/12/31 06:50:37;;;;;;;41.03;22.20;;;;;;;-142.91;100.00;56616.03;5036984;28;20223;-70
2023/12/31 06:53:05;;;;;;;50.22;24.00;;;;;;;-142.91;100.00;56616.03;5040639;28;20290;-70
2023/12/31 06:55:31;;;;;;;47.08;23.95;;;;;;;-142.91;100.00;56616.03;5037540;28;20195;-69
2023/12/31 06:57:58;;;;;;;37.70;23.17;;;;;;;23.25;100.00;56616.03;5040892;28;20290;-71
2023/12/31 07:00:26;;;;;;;52.58;25.02;;;;;;;;;;5037525;28;20776;-69
2023/12/31 07:02:52;;;;;;;43.15;24.95;;;;;;;23.26;100.00;56616.03;5039188;28;20740;-68
2023/12/31 07:05:18;;;;;;;44.38;24.13;;;;;;;;;;5036778;28;20289;-70
2023/12/31 07:07:46;;;;;;;44.55;26.15;;;;;;;;;;5038327;28;20291;-70
2023/12/31 07:10:12;;;;;;;39.65;22.48;;;;;;;23.25;100.00;56616.03;5039370;28;20210;-70
2023/12/31 07:12:39;;;;;;;44.92;24.15;;;;;;;23.25;100.00;56616.03;5034936;28;20219;-70
2023/12/31 07:15:06;;;;;;;49.72;26.80;;;;;;;;;;5039301;28;20318;-70
2023/12/31 07:17:34;;;;;;;54.05;27.40;;;;;;;23.25;100.00;56616.03;5038902;28;20215;-70
2023/12/31 07:20:00;;;;;;;42.80;24.48;;;;;;;23.25;100.00;56616.03;5043470;28;20329;-70
2023/12/31 07:22:27;;;;;;;37.05;22.80;;;;;;;;;;5039895;28;20758;-69
2023/12/31 07:24:53;;;;;;;36.15;21.73;;;;;;;-142.91;100.00;56616.03;5039647;28;20385;-69
2023/12/31 07:27:20;;;;;;;40.05;23.98;;;;;;;23.41;100.00;56616.03;5042734;28;20283;-68
2023/12/31 07:29:46;;;;;;;32.72;21.48;;;;;;;-142.91;100.00;56616.03;5041437;28;20728;-69
2023/12/31 07:32:13;;;;;;;36.38;24.02;;;;;;;23.29;100.00;56616.03;5042738;28;20199;-68
2023/12/31 07:34:42;;;;;;;35.67;23.00;;;;;;;-142.91;100.00;56616.03;5042661;28;20286;-70
2023/12/31 07:37:08;;;;;;;38.35;24.15;;;;;;;-142.91;100.00;56616.03;5041796;28;20679;-68
2023/12/31 07:39:35;;;;;;;37.50;23.98;;;;;;;-142.91;100.00;56616.03;5043044;28;20222;-69
2023/12/31 07:42:03;;;;;;;44.03;24.73;;;;;;;;;;5041230;28;20290;-70
2023/12/31 07:44:30;;;;;;;40.95;24.58;;;;;;;-142.91;100.00;56616.03;5041480;28;20291;-69
2023/12/31 07:46:57;;;;;;;36.22;23.52;;;;;;;-142.91;100.00;56616.03;5042354;28;20211;-69
2023/12/31 07:49:24;;;;;;;38.75;25.20;;;;;;;-142.91;100.00;56616.03;5042197;28;20198;-68
2023/12/31 07:51:52;;;;;;;40.67;24.63;;;;;;;-142.91;100.00;56616.03;5041091;28;20213;-66
2023/12/31 07:54:19;;;;;;;37.75;23.33;;;;;;;-142.91;100.00;56616.03;5039432;28;20289;-70
2023/12/31 07:56:45;;;;;;;34.50;23.23;;;;;;;-142.91;100.00;56616.03;5041334;28;20666;-68
2023/12/31 07:59:12;;;;;;;28.75;21.15;;;;;;;-142.91;100.00;56616.03;5044677;28;20318;-69
2023/12/31 08:01:38;;;;;;;35.30;21.70;;;;;;;;;;5040824;28;20246;-68
2023/12/31 08:04:05;;;;;;;40.92;24.85;;;;;;;23.41;100.00;56616.03;5042046;28;20286;-70
2023/12/31 08:06:32;;;;;;;36.25;23.58;;;;;;;-142.91;100.00;56616.03;5040926;28;20294;-70
2023/12/31 08:09:00;;;;;;;39.60;26.08;;;;;;;23.25;100.00;56616.03;5041129;28;20848;-69
2023/12/31 08:11:26;;;;;;;33.65;21.85;;;;;;;23.29;100.00;56616.03;5040873;28;20285;-67
2023/12/31 08:13:53;;;;;;;34.08;23.52;;;;;;;23.26;100.00;56616.03;5039107;28;20308;-68
2023/12/31 08:16:20;;;;;;;33.45;21.73;;;;;;;23.25;100.00;56616.03;5037670;28;20301;-67
2023/12/31 08:18:45;;;;;;;33.92;22.98;;;;;;;23.26;100.00;56616.03;5040806;28;20294;-69
2023/12/31 08:21:12;;;;;;;33.58;23.88;;;;;;;23.25;100.00;56616.03;5038739;28;20242;-69
2023/12/31 08:23:39;;;;;;;37.30;22.65;;;;;;;23.25;100.00;56616.03;5037251;28;20294;-67
2023/12/31 08:26:07;;;;;;;35.45;21.90;;;;;;;23.25;100.00;56616.03;5041876;28;20199;-70
2023/12/31 08:28:34;;;;;;;39.33;25.27;;;;;;;23.25;100.00;56616.03;5043041;28;20655;-70
2023/12/31 08:31:01;;;;;;;38.55;24.25;;;;;;;23.26;100.00;56616.03;5043124;28;20206;-67
2023/12/31 08:33:27;;;;;;;37.85;24.23;;;;;;;23.25;100.00;56616.03;5040154;28;20230;-70
2023/12/31 08:35:54;;;;;;;46.90;26.30;;;;;;;23.25;100.00;56616.03;5039315;28;20231;-70
2023/12/31 08:38:20;;;;;;;38.50;24.10;;;;;;;;;;5043310;28;20282;-69
2023/12/31 08:40:47;;;;;;;36.63;23.65;;;;;;;23.25;100.00;56616.03;5043453;28;20310;-69
2023/12/31 08:43:15;;;;;;;35.15;24.50;;;;;;;23.26;100.00;56616.03;5043084;28;20668;-69
2023/12/31 08:45:43;;;;;;;42.13;25.58;;;;;;;23.25;100.00;56616.03;5037381;28;20218;-69
2023/12/31 08:48:10;;;;;;;36.13;23.42;;;;;;;23.25;100.00;56616.03;5041637;28;20249;-69
2023/12/31 08:50:37;;;;;;;38.72;23.90;;;;;;;-142.91;100.00;56616.03;5039826;28;20264;-67
2023/12/31 08:53:04;;;;;;;37.55;25.02;;;;;;;23.25;100.00;56616.03;5041610;28;20728;-70
2023/12/31 08:55:30;;;;;;;39.80;24.83;;;;;;;23.25;100.00;56616.03;5038216;28;20250;-68
2023/12/31 08:57:57;;;;;;;40.00;24.83;;;;;;;23.26;100.00;56616.03;5038483;28;20277;-70
2023/12/31 09:00:25;;;;;;;42.97;25.02;;;;;;;-142.91;100.00;56616.03;5039405;28;20366;-69
2023/12/31 09:02:51;;;;;;;40.60;25.20;;;;;;;-142.91;100.00;56616.03;5041607;28;20235;-70
2023/12/31 09:05:18;;;;;;;43.65;23.67;;;;;;;23.26;100.00;56616.03;5037906;28;20242;-69
2023/12/31 09:07:45;;;;;;;37.70;24.27;;;;;;;23.25;100.00;56616.03;5042203;28;20371;-70
2023/12/31 09:10:12;;;;;;;38.88;24.15;;;;;;;;;;5043539;28;20203;-69
2023/12/31 09:12:39;;;;;;;38.53;24.25;;;;;;;23.26;100.00;56616.03;5035720;28;20218;-69
2023/12/31 09:15:07;;;;;;;32.70;24.27;;;;;;;23.25;100.00;56616.03;5037242;28;20676;-70
2023/12/31 09:17:36;;;;;;;46.40;26.60;;;;;;;23.25;100.00;56616.03;5042167;28;20207;-70
2023/12/31 09:20:06;;;;;;;40.05;25.05;;;;;;;23.26;100.00;56616.03;5042642;28;20219;-69
2023/12/31 09:22:33;;;;;;;35.63;23.92;;;;;;;23.25;100.00;56616.03;5039686;28;20260;-70
2023/12/31 09:24:59;;;;;;;40.88;26.10;;;;;;;23.25;100.00;56616.03;5039955;28;20211;-72
2023/12/31 09:27:26;;;;;;;38.25;26.80;;;;;;;23.27;100.00;56616.03;5043466;28;20238;-73
2023/12/31 09:29:53;;;;;;;47.72;29.67;;;;;;;23.25;100.00;56616.03;5038365;28;20227;-75
2023/12/31 09:32:19;;;;;;;48.22;30.30;;;;;;;23.25;100.00;56616.03;5041580;28;20231;-69
2023/12/31 09:34:48;;;;;;;47.47;31.15;;;;;;;23.25;100.00;56616.03;5041752;28;20238;-70
2023/12/31 09:37:19;;;;;;;51.90;31.50;;;;;;;23.25;100.00;56616.03;5040713;28;20207;-72
2023/12/31 09:39:46;;;;;;;53.38;34.08;;;;;;;23.25;100.00;56616.03;5041104;28;20218;-70
2023/12/31 09:42:15;;;;;;;59.30;36.65;;;;;;;23.25;100.00;56616.03;5042967;28;20237;-70
2023/12/31 09:44:42;;;;;;;56.67;34.60;;;;;;;-142.91;100.00;56616.03;5040899;28;20306;-69
2023/12/31 09:47:11;;;;;;;67.10;36.60;;;;;;;23.25;100.00;56616.03;5039963;28;20202;-69
2023/12/31 09:49:39;;;;;;;43.28;26.05;;;;;;;23.25;100.00;56616.03;5039486;28;20223;-67
2023/12/31 09:52:08;;;;;;;43.55;27.17;;;;;;;23.25;100.00;56616.03;5041066;28;20301;-70
2023/12/31 09:54:38;;;;;;;48.03;27.52;;;;;;;23.25;100.00;56616.03;5038400;28;20231;-69
2023/12/31 09:57:05;;;;;;;43.75;28.98;;;;;;;23.25;100.00;56616.03;5037344;28;20651;-68
2023/12/31 09:59:32;;;;;;;47.00;29.65;;;;;;;23.25;100.00;56616.03;5038557;28;20278;-70
2023/12/31 10:02:02;;;;;;;38.22;27.25;;;;;;;23.25;100.00;56616.03;5039460;28;20299;-70
2023/12/31 10:04:29;;;;;;;46.63;24.45;;;;;;;23.25;100.00;56616.03;5037551;28;20216;-69
2023/12/31 10:06:57;;;;;;;34.42;24.35;;;;;;;23.25;100.00;56616.03;5038289;28;20289;-71
2023/12/31 10:09:27;;;;;;;35.38;23.75;;;;;;;23.25;100.00;56616.03;5035519;28;20281;-69
2023/12/31 10:11:55;;;;;;;31.35;22.42;;;;;;;23.25;100.00;56616.03;5037372;28;20334;-68
2023/12/31 10:14:22;;;;;;;32.35;22.25;;;;;;;23.25;100.00;56616.03;5035860;28;20208;-68
2023/12/31 10:16:49;;;;;;;32.33;22.75;;;;;;;23.25;100.00;56616.03;5032373;28;20298;-69
2023/12/31 10:19:16;;;;;;;34.88;23.83;;;;;;;-142.91;100.00;56616.03;5035489;28;20204;-68
2023/12/31 10:21:44;;;;;;;34.92;24.00;;;;;;;23.25;100.00;56616.03;5034476;28;20234;-68
2023/12/31 10:24:10;;;;;;;33.40;23.20;;;;;;;;;;5034339;28;20290;-68
2023/12/31 10:26:39;;;;;;;39.78;24.63;;;;;;;23.26;100.00;56616.03;5035833;28;20258;-67
2023/12/31 10:29:06;;;;;;;30.63;23.08;;;;;;;-142.91;100.00;56616.03;5035876;28;20258;-68
2023/12/31 10:31:33;;;;;;;38.50;27.27;;;;;;;-142.91;100.00;56616.03;5036917;28;20294;-68
2023/12/31 10:34:13;;;;;;;51.05;30.15;;;;;;;23.25;100.00;56616.03;5038764;28;20227;-68
2023/12/31 10:36:40;;;;;;;51.45;31.30;;;;;;;-142.91;100.00;56616.03;5037026;28;20269;-69
2023/12/31 10:39:08;;;;;;;37.75;25.63;;;;;;;-142.91;100.00;56616.03;5039242;28;20231;-69
2023/12/31 10:41:37;;;;;;;45.00;26.13;;;;;;;-142.91;100.00;56616.03;5040844;28;20238;-68
2023/12/31 10:44:12;;;;;;;38.35;25.30;;;;;;;23.25;100.00;56616.03;5036895;28;20206;-70
2023/12/31 10:46:42;;;;;;;34.92;24.67;;;;;;;-142.91;100.00;56616.03;5035523;28;20286;-69
2023/12/31 10:49:12;;;;;;;33.78;22.55;;;;;;;23.25;100.00;56616.03;5038360;28;20281;-69
2023/12/31 10:51:42;;;;;;;36.20;22.58;;;;;;;23.26;100.00;56616.03;5038592;28;20276;-68
2023/12/31 10:54:12;;;;;;;33.63;20.63;;;;;;;23.25;100.00;56616.03;5038796;28;20195;-68
2023/12/31 10:56:42;;;;;;;30.92;19.75;;;;;;;23.25;100.00;56616.03;5032785;28;20698;-68
2023/12/31 10:59:13;;;;;;;29.35;20.02;;;;;;;23.25;100.00;56616.03;5037187;28;20275;-70
2023/12/31 11:01:42;;;;;;;28.85;19.83;;;;;;;-142.91;100.00;56616.03;5037884;28;20263;-69
2023/12/31 11:04:10;;;;;;;33.47;20.73;;;;;;;-142.91;100.00;56616.03;5038851;28;20223;-69
2023/12/31 11:06:39;;;;;;;22.13;16.15;;;;;;;-142.91;100.00;56616.03;5036039;28;20278;-72
2023/12/31 11:09:07;;;;;;;21.92;16.67;;;;;;;23.26;100.00;56616.03;5038340;28;20290;-70
2023/12/31 11:11:33;;;;;;;25.73;15.48;;;;;;;23.25;100.00;56616.03;5041123;28;20672;-68
2023/12/31 11:14:04;;;;;;;16.08;13.30;;;;;;;-142.91;100.00;56616.03;5039542;28;20249;-69